Time;durP1;ratioP1;P1;durP2;ratioP2;P2;SDS_P1;SDS_P2;PMS_P1;PMS_P2;Temp;Humidity;BMP_temperature;BMP_pressure;BME280_temperature;BME280_humidity;BME280_pressure;Samples;Min_cycle;Max_cycle;Signal;HPM_P1;HPM_P2
2023/05/04 00:01:37;;;;;;;13.17;3.70;;;11.30;99.90;;;;;;6214781;23;20207;-60
2023/05/04 00:04:03;;;;;;;4.47;2.30;;;11.30;99.90;;;;;;6215340;23;20265;-60
2023/05/04 00:06:39;;;;;;;5.90;2.70;;;11.30;99.90;;;;;;6214612;23;20145;-60
2023/05/04 00:09:05;;;;;;;9.00;3.33;;;11.30;99.90;;;;;;6215614;23;20138;-59
2023/05/04 00:11:31;;;;;;;8.10;2.90;;;11.20;99.90;;;;;;6216143;23;20225;-60
2023/05/04 00:13:57;;;;;;;8.07;2.97;;;11.10;99.90;;;;;;6215471;23;20149;-59
2023/05/04 00:16:22;;;;;;;7.77;3.27;;;11.10;99.90;;;;;;6212503;23;20158;-60
2023/05/04 00:18:48;;;;;;;7.63;3.10;;;11.00;99.90;;;;;;6212270;23;20173;-57
2023/05/04 00:21:14;;;;;;;7.37;3.30;;;11.10;99.90;;;;;;6214576;23;20180;-59
2023/05/04 00:23:39;;;;;;;6.30;2.80;;;11.00;99.90;;;;;;6215400;23;20129;-59
2023/05/04 00:26:04;;;;;;;9.47;3.30;;;11.00;99.90;;;;;;6214072;23;20137;-60
2023/05/04 00:28:30;;;;;;;8.30;3.43;;;11.00;99.90;;;;;;6212962;23;20138;-60
2023/05/04 00:30:56;;;;;;;8.83;3.07;;;10.90;99.90;;;;;;6214053;23;20271;-60
2023/05/04 00:33:21;;;;;;;5.60;3.00;;;10.90;99.90;;;;;;6215181;23;20134;-60
2023/05/04 00:35:47;;;;;;;13.87;3.10;;;10.90;99.90;;;;;;6213869;23;20457;-59
2023/05/04 00:38:14;;;;;;;8.77;3.33;;;10.90;99.90;;;;;;6214040;23;20474;-60
2023/05/04 00:40:40;;;;;;;6.80;3.07;;;10.90;99.90;;;;;;6214150;23;20177;-60
2023/05/04 00:43:05;;;;;;;9.80;3.53;;;10.80;99.90;;;;;;6214997;23;20136;-60
2023/05/04 00:45:31;;;;;;;9.23;3.50;;;10.80;99.90;;;;;;6213437;23;20206;-60
2023/05/04 00:47:57;;;;;;;9.33;3.47;;;10.70;99.90;;;;;;6211501;23;20145;-59
2023/05/04 00:50:25;;;;;;;7.70;3.20;;;10.70;99.90;;;;;;6209374;23;20237;-60
2023/05/04 00:52:54;;;;;;;9.10;4.13;;;10.60;99.90;;;;;;6211310;23;20480;-59
2023/05/04 00:55:19;;;;;;;8.63;3.47;;;10.60;99.90;;;;;;6210895;23;20146;-57
2023/05/04 00:57:47;;;;;;;11.33;3.53;;;10.60;99.90;;;;;;6210905;23;20184;-58
2023/05/04 01:00:12;;;;;;;6.17;3.10;;;10.50;99.90;;;;;;6212470;23;20260;-59
2023/05/04 01:02:39;;;;;;;5.57;3.93;;;10.50;99.90;;;;;;6212355;23;20152;-60
2023/05/04 01:05:06;;;;;;;6.63;3.50;;;10.50;99.90;;;;;;6212394;23;20156;-59
2023/05/04 01:07:49;;;;;;;8.40;3.63;;;10.40;99.90;;;;;;6214088;23;20148;-59
2023/05/04 01:10:31;;;;;;;8.70;3.33;;;10.40;99.90;;;;;;6212836;23;20577;-59
2023/05/04 01:13:11;;;;;;;4.23;2.93;;;10.40;99.90;;;;;;6212967;23;20526;-60
2023/05/04 01:15:38;;;;;;;10.30;3.60;;;10.40;99.90;;;;;;6211470;23;20204;-59
2023/05/04 01:18:04;;;;;;;10.67;3.40;;;10.30;99.90;;;;;;6210741;23;20177;-59
2023/05/04 01:20:30;;;;;;;7.13;3.40;;;10.20;99.90;;;;;;6212051;23;20172;-59
2023/05/04 01:22:56;;;;;;;6.57;3.20;;;10.10;99.90;;;;;;6208949;23;20153;-58
2023/05/04 01:25:26;;;;;;;9.33;3.33;;;10.10;99.90;;;;;;6211002;23;20138;-60
2023/05/04 01:27:58;;;;;;;8.33;3.60;;;10.10;99.90;;;;;;6212200;23;20122;-60
2023/05/04 01:30:29;;;;;;;7.37;3.20;;;10.10;99.90;;;;;;6212123;23;20197;-59
2023/05/04 01:32:58;;;;;;;8.90;2.73;;;10.10;99.90;;;;;;6215342;23;20145;-60
2023/05/04 01:35:24;;;;;;;7.40;3.33;;;10.10;99.90;;;;;;6212940;23;20157;-60
2023/05/04 01:37:50;;;;;;;8.20;3.57;;;10.10;99.90;;;;;;6213948;23;20153;-59
2023/05/04 01:40:15;;;;;;;8.67;3.20;;;10.10;99.90;;;;;;6213814;23;20169;-60
2023/05/04 01:42:41;;;;;;;6.40;2.90;;;10.00;99.90;;;;;;6213581;23;20165;-60
2023/05/04 01:45:07;;;;;;;12.70;2.90;;;10.00;99.90;;;;;;6213074;23;20134;-59
2023/05/04 01:47:33;;;;;;;9.07;3.60;;;9.90;99.90;;;;;;6213478;23;20216;-60
2023/05/04 01:49:59;;;;;;;6.10;2.77;;;9.90;99.90;;;;;;6213572;23;20153;-59
2023/05/04 01:52:24;;;;;;;4.50;2.73;;;9.90;99.90;;;;;;6211849;23;20138;-56
2023/05/04 01:54:50;;;;;;;4.07;2.40;;;9.90;99.90;;;;;;6211766;23;20385;-59
2023/05/04 01:57:16;;;;;;;8.13;2.97;;;10.00;99.90;;;;;;6211101;23;20148;-60
2023/05/04 01:59:42;;;;;;;10.60;3.40;;;10.00;99.90;;;;;;6210092;23;20172;-60
2023/05/04 02:02:08;;;;;;;5.47;3.27;;;10.00;99.90;;;;;;6210337;23;20161;-58
2023/05/04 02:04:34;;;;;;;6.13;2.73;;;9.90;99.90;;;;;;6211068;23;20142;-60
2023/05/04 02:06:59;;;;;;;7.87;3.00;;;9.90;99.90;;;;;;6211090;23;20173;-60
2023/05/04 02:09:25;;;;;;;6.03;3.20;;;9.90;99.90;;;;;;6209631;23;20200;-60
2023/05/04 02:11:50;;;;;;;5.73;2.67;;;9.90;99.90;;;;;;6211140;23;20543;-59
2023/05/04 02:14:16;;;;;;;7.20;3.27;;;9.80;99.90;;;;;;6210998;23;20173;-60
2023/05/04 02:16:41;;;;;;;6.50;2.87;;;9.80;99.90;;;;;;6210318;23;20344;-59
2023/05/04 02:19:07;;;;;;;9.80;3.83;;;9.80;99.90;;;;;;6210768;23;20170;-60
2023/05/04 02:21:32;;;;;;;7.77;3.30;;;9.70;99.90;;;;;;6209181;23;20152;-58
2023/05/04 02:23:58;;;;;;;9.47;3.03;;;9.70;99.90;;;;;;6210990;23;20133;-59
2023/05/04 02:26:24;;;;;;;6.07;3.47;;;9.60;99.90;;;;;;6211023;23;20253;-59
2023/05/04 02:28:50;;;;;;;5.60;3.30;;;9.60;99.90;;;;;;6210813;23;20152;-59
2023/05/04 02:31:15;;;;;;;8.97;3.50;;;9.50;99.90;;;;;;6187340;23;20157;-59
2023/05/04 02:33:41;;;;;;;7.57;3.03;;;9.50;99.90;;;;;;6184715;23;20150;-59
2023/05/04 02:36:06;;;;;;;4.37;2.67;;;9.50;99.90;;;;;;6185453;23;20437;-59
2023/05/04 02:38:32;;;;;;;6.47;3.33;;;9.50;99.90;;;;;;6183972;23;20446;-60
2023/05/04 02:40:57;;;;;;;6.67;3.03;;;9.40;99.90;;;;;;6187249;23;20138;-57
2023/05/04 02:43:23;;;;;;;6.67;3.03;;;9.50;99.90;;;;;;6186223;23;20141;-59
2023/05/04 02:45:49;;;;;;;10.00;3.27;;;9.40;99.90;;;;;;6184186;23;20476;-59
2023/05/04 02:48:14;;;;;;;5.97;2.80;;;9.40;99.90;;;;;;6185131;23;20363;-59
2023/05/04 02:50:40;;;;;;;5.47;3.00;;;9.30;99.90;;;;;;6185828;23;20146;-58
2023/05/04 02:53:05;;;;;;;4.87;2.77;;;9.30;99.90;;;;;;6211674;23;20145;-59
2023/05/04 02:55:31;;;;;;;5.47;2.63;;;9.30;99.90;;;;;;6210988;23;20313;-57
2023/05/04 02:57:57;;;;;;;17.63;3.30;;;9.30;99.90;;;;;;6211994;23;20134;-59
2023/05/04 03:00:22;;;;;;;7.80;2.93;;;9.30;99.90;;;;;;6185707;23;20203;-59
2023/05/04 03:02:48;;;;;;;4.70;2.90;;;9.30;99.90;;;;;;6185620;23;20507;-60
2023/05/04 03:05:14;;;;;;;5.57;2.90;;;9.30;99.90;;;;;;6185331;23;20142;-58
2023/05/04 03:07:40;;;;;;;10.97;2.83;;;9.20;99.90;;;;;;6210812;23;20122;-60
2023/05/04 03:10:08;;;;;;;9.97;3.10;;;9.20;99.90;;;;;;6185048;23;20561;-58
2023/05/04 03:12:33;;;;;;;8.77;3.20;;;9.10;99.90;;;;;;6184065;23;20142;-59
2023/05/04 03:14:59;;;;;;;6.47;2.60;;;9.10;99.90;;;;;;6185246;23;20142;-57
2023/05/04 03:17:24;;;;;;;6.30;2.80;;;9.10;99.90;;;;;;6188872;23;20164;-56
2023/05/04 03:19:50;;;;;;;5.53;3.13;;;9.00;99.90;;;;;;6183602;23;20180;-58
2023/05/04 03:22:16;;;;;;;7.93;3.40;;;9.00;99.90;;;;;;6182832;23;20224;-60
2023/05/04 03:24:41;;;;;;;7.43;2.70;;;9.00;99.90;;;;;;6209495;23;20429;-60
2023/05/04 03:27:07;;;;;;;7.57;3.50;;;9.00;99.90;;;;;;6207965;23;20142;-60
2023/05/04 03:29:33;;;;;;;7.43;2.87;;;9.00;99.90;;;;;;6188467;23;20220;-60
2023/05/04 03:31:58;;;;;;;4.97;3.13;;;8.90;99.90;;;;;;6206161;23;20422;-60
2023/05/04 03:34:24;;;;;;;6.83;2.97;;;9.00;99.90;;;;;;6208179;23;20467;-60
2023/05/04 03:36:50;;;;;;;8.93;2.70;;;8.90;99.90;;;;;;6207831;23;20473;-59
2023/05/04 03:39:16;;;;;;;9.43;2.90;;;8.90;99.90;;;;;;6207286;23;20347;-61
2023/05/04 03:41:42;;;;;;;8.67;3.70;;;8.80;99.90;;;;;;6208750;23;20146;-58
2023/05/04 03:44:08;;;;;;;7.10;3.67;;;8.70;99.90;;;;;;6208419;23;20158;-61
2023/05/04 03:46:34;;;;;;;4.30;2.73;;;8.70;99.90;;;;;;6208547;23;20134;-60
2023/05/04 03:48:59;;;;;;;6.80;3.53;;;8.60;99.90;;;;;;6211188;23;20406;-60
2023/05/04 03:51:25;;;;;;;6.80;3.23;;;8.60;99.90;;;;;;6210069;23;20130;-60
2023/05/04 03:53:50;;;;;;;6.80;3.23;;;8.60;99.90;;;;;;6207555;23;20153;-60
2023/05/04 03:56:16;;;;;;;7.57;3.17;;;8.60;99.90;;;;;;6207877;23;20235;-59
2023/05/04 03:58:42;;;;;;;5.80;2.87;;;8.60;99.90;;;;;;6207649;23;20146;-60
2023/05/04 04:01:07;;;;;;;7.57;3.23;;;8.60;99.90;;;;;;6204867;23;20422;-61
2023/05/04 04:03:35;;;;;;;12.60;3.40;;;8.70;99.90;;;;;;6206481;23;20165;-60
2023/05/04 04:06:02;;;;;;;7.47;2.97;;;8.70;99.90;;;;;;6208563;23;20191;-60
2023/05/04 04:08:28;;;;;;;8.13;3.13;;;8.70;99.90;;;;;;6207955;23;20530;-57
2023/05/04 04:10:54;;;;;;;7.20;3.33;;;8.60;99.90;;;;;;6205462;23;20154;-60
2023/05/04 04:13:19;;;;;;;5.07;3.30;;;8.60;99.90;;;;;;6204810;23;20452;-60
2023/05/04 04:15:45;;;;;;;7.37;3.30;;;8.60;99.90;;;;;;6203691;23;20149;-60
2023/05/04 04:18:11;;;;;;;6.30;3.63;;;8.60;99.90;;;;;;6199686;23;20322;-60
2023/05/04 04:20:37;;;;;;;8.20;3.33;;;8.60;99.90;;;;;;6198034;23;20173;-59
2023/05/04 04:23:03;;;;;;;8.93;3.67;;;8.60;99.90;;;;;;6199267;23;20138;-59
2023/05/04 04:25:29;;;;;;;8.10;3.30;;;8.50;99.90;;;;;;6200515;23;20484;-60
2023/05/04 04:27:55;;;;;;;14.30;3.93;;;8.50;99.90;;;;;;6201749;23;20122;-57
2023/05/04 04:30:21;;;;;;;9.73;3.87;;;8.60;99.90;;;;;;6202199;23;20227;-59
2023/05/04 04:32:48;;;;;;;9.00;3.80;;;8.60;99.90;;;;;;6206344;23;20206;-58
2023/05/04 04:35:14;;;;;;;7.57;3.57;;;8.50;99.90;;;;;;6209574;23;20149;-60
2023/05/04 04:37:40;;;;;;;6.43;3.03;;;8.50;99.90;;;;;;6210016;23;20332;-57
2023/05/04 04:40:06;;;;;;;5.00;2.80;;;8.50;99.90;;;;;;6208066;23;20235;-60
2023/05/04 04:42:32;;;;;;;8.33;3.87;;;8.50;99.90;;;;;;6206564;23;20145;-59
2023/05/04 04:44:58;;;;;;;10.47;3.67;;;8.60;99.90;;;;;;6205581;23;20229;-60
2023/05/04 04:47:24;;;;;;;5.30;3.50;;;8.60;99.90;;;;;;6206969;23;20565;-60
2023/05/04 04:49:49;;;;;;;6.53;3.30;;;8.60;99.90;;;;;;6207161;23;20357;-59
2023/05/04 04:52:16;;;;;;;7.27;3.30;;;8.70;99.90;;;;;;6205931;23;20432;-61
2023/05/04 04:54:42;;;;;;;12.47;3.87;;;8.70;99.90;;;;;;6207688;23;20153;-59
2023/05/04 04:57:08;;;;;;;14.07;4.63;;;8.70;99.90;;;;;;6206056;23;20196;-60
2023/05/04 04:59:34;;;;;;;6.33;3.53;;;8.70;99.90;;;;;;6206407;23;20450;-60
2023/05/04 05:02:00;;;;;;;12.30;3.70;;;8.70;99.90;;;;;;6208606;23;20168;-60
2023/05/04 05:04:26;;;;;;;10.10;3.37;;;8.80;99.90;;;;;;6208955;23;20348;-60
2023/05/04 05:06:52;;;;;;;7.03;3.60;;;8.80;99.90;;;;;;6209781;23;20488;-58
2023/05/04 05:09:18;;;;;;;9.37;4.00;;;8.80;99.90;;;;;;6207246;23;20336;-60
2023/05/04 05:11:44;;;;;;;11.57;4.20;;;8.80;99.90;;;;;;6206617;23;20134;-58
2023/05/04 05:14:09;;;;;;;7.23;3.97;;;8.90;99.90;;;;;;6205479;23;20138;-60
2023/05/04 05:16:35;;;;;;;6.67;3.70;;;8.90;99.90;;;;;;6204166;23;20141;-60
2023/05/04 05:19:00;;;;;;;7.83;3.70;;;8.90;99.90;;;;;;6201462;23;20489;-60
2023/05/04 05:21:26;;;;;;;6.30;3.13;;;8.90;99.90;;;;;;6201134;23;20512;-59
2023/05/04 05:23:52;;;;;;;4.97;2.70;;;8.90;99.90;;;;;;6204877;23;20146;-58
2023/05/04 05:26:17;;;;;;;5.03;3.07;;;9.00;99.90;;;;;;6205157;23;20370;-60
2023/05/04 05:28:43;;;;;;;7.20;3.00;;;9.00;99.90;;;;;;6203041;23;20550;-60
2023/05/04 05:31:09;;;;;;;6.57;2.63;;;9.10;99.90;;;;;;6175511;23;20149;-59
2023/05/04 05:33:34;;;;;;;5.00;2.60;;;9.10;99.90;;;;;;6177865;23;20138;-60
2023/05/04 05:36:00;;;;;;;3.40;2.80;;;9.10;99.90;;;;;;6179241;23;20169;-60
2023/05/04 05:38:26;;;;;;;7.40;3.00;;;9.20;99.90;;;;;;6204425;23;20152;-57
2023/05/04 05:40:52;;;;;;;7.43;2.90;;;9.20;99.90;;;;;;6180158;23;20516;-59
2023/05/04 05:43:17;;;;;;;7.33;3.60;;;9.20;99.90;;;;;;6175787;23;20141;-60
2023/05/04 05:45:43;;;;;;;7.70;2.30;;;9.20;99.90;;;;;;6201973;23;20126;-60
2023/05/04 05:48:09;;;;;;;7.67;2.50;;;9.30;99.90;;;;;;6203266;23;20212;-59
2023/05/04 05:50:34;;;;;;;5.33;2.43;;;9.30;99.90;;;;;;6174622;23;20299;-60
2023/05/04 05:53:00;;;;;;;5.07;2.47;;;9.30;99.90;;;;;;6174370;23;20142;-60
2023/05/04 05:55:26;;;;;;;6.23;2.67;;;9.40;99.90;;;;;;6173051;23;20223;-60
2023/05/04 05:57:51;;;;;;;6.30;2.27;;;9.40;99.90;;;;;;6171603;23;20232;-57
2023/05/04 06:00:17;;;;;;;7.57;2.50;;;9.40;99.90;;;;;;6171870;23;20582;-60
2023/05/04 06:02:43;;;;;;;7.20;2.83;;;9.40;99.90;;;;;;6172929;23;20145;-58
2023/05/04 06:05:09;;;;;;;2.20;1.57;;;9.40;99.90;;;;;;6172010;23;20443;-60
2023/05/04 06:07:35;;;;;;;5.13;2.20;;;9.50;99.90;;;;;;6168874;23;20601;-59
2023/05/04 06:10:00;;;;;;;4.43;2.10;;;9.50;99.90;;;;;;6191309;23;20149;-59
2023/05/04 06:12:26;;;;;;;5.57;2.10;;;9.50;99.90;;;;;;6191475;23;20140;-57
2023/05/04 06:14:52;;;;;;;7.50;2.07;;;9.50;99.90;;;;;;6164687;23;20145;-59
2023/05/04 06:17:18;;;;;;;2.63;1.93;;;9.60;99.90;;;;;;6166107;23;20464;-58
2023/05/04 06:19:44;;;;;;;3.57;2.07;;;9.60;99.90;;;;;;6167314;23;20429;-61
2023/05/04 06:22:10;;;;;;;5.37;2.10;;;9.60;99.90;;;;;;6166075;23;20145;-59
2023/05/04 06:24:36;;;;;;;5.87;1.90;;;9.70;99.90;;;;;;6164951;23;20153;-59
2023/05/04 06:27:02;;;;;;;4.50;1.97;;;9.70;99.90;;;;;;6166111;23;20658;-58
2023/05/04 06:29:27;;;;;;;4.27;1.80;;;9.70;99.90;;;;;;6167806;23;20377;-59
2023/05/04 06:31:53;;;;;;;7.53;2.30;;;9.70;99.90;;;;;;6191967;23;20196;-60
2023/05/04 06:34:18;;;;;;;4.90;2.13;;;9.80;99.90;;;;;;6193166;23;20142;-59
2023/05/04 06:36:44;;;;;;;5.33;2.13;;;9.80;99.90;;;;;;6192451;23;20327;-60
2023/05/04 06:39:10;;;;;;;3.70;2.07;;;9.80;99.90;;;;;;6193884;23;20249;-60
2023/05/04 06:41:36;;;;;;;3.10;1.83;;;9.90;99.90;;;;;;6191887;23;20464;-59
2023/05/04 06:44:03;;;;;;;4.13;1.70;;;9.90;99.90;;;;;;6191437;23;20146;-60
2023/05/04 06:46:29;;;;;;;7.97;3.03;;;9.90;99.90;;;;;;6190499;23;20169;-58
2023/05/04 06:48:55;;;;;;;2.77;1.53;;;9.90;99.90;;;;;;6188686;23;20156;-59
2023/05/04 06:51:21;;;;;;;2.57;1.77;;;9.90;99.90;;;;;;6187376;23;20421;-60
2023/05/04 06:53:47;;;;;;;4.13;1.80;;;10.00;99.90;;;;;;6189448;23;20460;-59
2023/05/04 06:56:12;;;;;;;3.50;1.57;;;10.00;99.90;;;;;;6190232;23;20146;-60
2023/05/04 06:58:38;;;;;;;4.67;1.27;;;10.00;99.90;;;;;;6192873;23;20579;-60
2023/05/04 07:01:07;;;;;;;6.97;2.60;;;10.10;99.90;;;;;;6192892;23;20430;-59
2023/05/04 07:03:33;;;;;;;5.67;1.77;;;10.10;99.90;;;;;;6191258;23;20577;-60
2023/05/04 07:05:58;;;;;;;6.53;1.63;;;10.10;99.90;;;;;;6190933;23;20632;-60
2023/05/04 07:08:24;;;;;;;5.43;1.73;;;10.20;99.90;;;;;;6188058;23;20180;-60
2023/05/04 07:10:50;;;;;;;5.90;1.60;;;10.20;99.90;;;;;;6188096;23;20485;-62
2023/05/04 07:13:15;;;;;;;5.33;2.00;;;10.20;99.90;;;;;;6184061;23;20244;-58
2023/05/04 07:15:41;;;;;;;3.97;1.60;;;10.20;99.90;;;;;;6186638;23;20199;-59
2023/05/04 07:18:06;;;;;;;4.07;1.77;;;10.30;99.90;;;;;;6188791;23;20229;-59
2023/05/04 07:20:32;;;;;;;4.93;1.47;;;10.40;99.90;;;;;;6187642;23;20169;-58
2023/05/04 07:22:57;;;;;;;6.10;1.70;;;10.40;99.90;;;;;;6187384;23;20223;-59
2023/05/04 07:25:27;;;;;;;4.43;1.40;;;10.40;99.90;;;;;;6188925;23;20201;-59
2023/05/04 07:27:53;;;;;;;2.37;1.23;;;10.40;99.90;;;;;;6189017;23;20153;-57
2023/05/04 07:30:19;;;;;;;5.07;2.20;;;10.50;99.90;;;;;;6190193;23;20264;-57
2023/05/04 07:32:45;;;;;;;6.70;1.97;;;10.50;99.90;;;;;;6164653;23;20238;-59
2023/05/04 07:35:11;;;;;;;4.20;1.67;;;10.60;99.90;;;;;;6165301;23;20326;-59
2023/05/04 07:37:37;;;;;;;5.97;1.90;;;10.60;99.90;;;;;;6193433;23;20205;-61
2023/05/04 07:40:04;;;;;;;3.33;1.70;;;10.60;99.90;;;;;;6168545;23;20209;-59
2023/05/04 07:42:30;;;;;;;7.67;1.60;;;10.60;99.90;;;;;;6175007;23;20146;-58
2023/05/04 07:44:56;;;;;;;5.70;1.73;;;10.70;99.90;;;;;;6169990;23;20152;-56
2023/05/04 07:47:21;;;;;;;6.30;1.80;;;10.70;99.90;;;;;;6169152;23;20228;-58
2023/05/04 07:49:47;;;;;;;1.83;1.30;;;10.80;99.90;;;;;;6169552;23;20456;-59
2023/05/04 07:52:13;;;;;;;3.67;1.30;;;10.80;99.90;;;;;;6192864;23;20129;-59
2023/05/04 07:54:38;;;;;;;6.07;1.40;;;10.90;99.90;;;;;;6167980;23;20160;-58
2023/05/04 07:57:04;;;;;;;7.63;2.07;;;10.90;99.90;;;;;;6167223;23;20176;-59
2023/05/04 07:59:30;;;;;;;5.53;2.17;;;10.90;99.90;;;;;;6164723;23;20436;-59
2023/05/04 08:01:55;;;;;;;3.50;1.57;;;11.00;99.90;;;;;;6166217;23;20141;-59
2023/05/04 08:04:21;;;;;;;4.63;2.10;;;11.00;99.90;;;;;;6188987;23;20356;-59
2023/05/04 08:06:48;;;;;;;5.80;1.70;;;11.00;99.90;;;;;;6163885;23;20504;-59
2023/05/04 08:09:14;;;;;;;6.10;1.70;;;11.00;99.90;;;;;;6166404;23;20153;-58
2023/05/04 08:11:40;;;;;;;4.77;2.03;;;11.10;99.90;;;;;;6165479;23;20152;-59
2023/05/04 08:14:07;;;;;;;7.67;1.83;;;11.10;99.90;;;;;;6166034;23;20151;-59
2023/05/04 08:16:32;;;;;;;5.37;1.70;;;11.20;99.90;;;;;;6168751;23;20142;-59
2023/05/04 08:19:00;;;;;;;7.73;2.03;;;11.20;99.90;;;;;;6171613;23;20172;-59
2023/05/04 08:21:26;;;;;;;3.37;1.37;;;11.30;99.90;;;;;;6205277;23;20205;-59
2023/05/04 08:23:52;;;;;;;4.50;1.53;;;11.30;99.90;;;;;;6180395;23;20156;-59
2023/05/04 08:26:18;;;;;;;4.33;2.00;;;11.40;99.90;;;;;;6180259;23;20150;-59
2023/05/04 08:28:45;;;;;;;4.97;2.03;;;11.40;99.90;;;;;;6205847;23;20129;-59
2023/05/04 08:31:11;;;;;;;3.93;1.60;;;11.40;99.90;;;;;;6204433;23;20179;-59
2023/05/04 08:33:37;;;;;;;4.13;1.40;;;11.50;99.90;;;;;;6203743;23;20153;-59
2023/05/04 08:36:04;;;;;;;4.47;1.40;;;11.50;99.90;;;;;;6177826;23;20219;-58
2023/05/04 08:38:29;;;;;;;4.93;2.07;;;11.60;99.90;;;;;;6179922;23;20157;-59
2023/05/04 08:40:55;;;;;;;4.30;1.40;;;11.60;99.90;;;;;;6179442;23;20247;-59
2023/05/04 08:43:21;;;;;;;2.67;1.30;;;11.60;99.90;;;;;;6180052;23;20142;-58
2023/05/04 08:45:48;;;;;;;3.70;1.80;;;11.70;99.90;;;;;;6177056;23;20551;-59
2023/05/04 08:48:13;;;;;;;5.27;2.10;;;11.70;99.90;;;;;;6179004;23;20153;-59
2023/05/04 08:50:39;;;;;;;9.33;1.87;;;11.70;99.90;;;;;;6182018;23;20158;-59
2023/05/04 08:53:06;;;;;;;2.33;1.57;;;11.80;99.90;;;;;;6206430;23;20140;-57
2023/05/04 08:55:35;;;;;;;2.87;1.70;;;11.90;99.90;;;;;;6179374;23;20153;-59
2023/05/04 08:58:09;;;;;;;2.93;1.17;;;11.90;99.90;;;;;;6180322;23;20516;-60
2023/05/04 09:00:35;;;;;;;3.60;1.60;;;12.00;99.90;;;;;;6181365;23;20173;-59
2023/05/04 09:03:03;;;;;;;5.40;1.90;;;12.10;99.90;;;;;;6180797;23;20153;-58
2023/05/04 09:05:29;;;;;;;5.87;1.80;;;12.10;99.90;;;;;;6178898;23;20142;-59
2023/05/04 09:07:55;;;;;;;3.80;1.40;;;12.10;99.90;;;;;;6204121;23;20201;-57
2023/05/04 09:10:20;;;;;;;6.83;1.70;;;12.10;99.90;;;;;;6177001;23;20173;-60
2023/05/04 09:12:46;;;;;;;3.57;1.33;;;12.20;99.90;;;;;;6201665;23;20188;-59
2023/05/04 09:15:19;;;;;;;3.33;1.47;;;12.30;99.90;;;;;;6173404;23;20148;-60
2023/05/04 09:18:02;;;;;;;3.33;1.40;;;12.30;99.90;;;;;;6172052;23;20280;-60
2023/05/04 09:20:29;;;;;;;3.17;1.40;;;12.40;99.90;;;;;;6172396;23;20248;-59
2023/05/04 09:23:03;;;;;;;3.73;1.37;;;12.50;99.90;;;;;;6174425;23;20141;-59
2023/05/04 09:25:28;;;;;;;3.70;1.67;;;12.50;99.90;;;;;;6176328;23;20208;-60
2023/05/04 09:27:54;;;;;;;3.10;1.30;;;12.60;99.90;;;;;;6200986;23;20125;-59
2023/05/04 09:30:20;;;;;;;5.60;1.27;;;12.60;99.90;;;;;;6191021;23;20197;-59
2023/05/04 09:32:48;;;;;;;4.50;1.60;;;12.70;99.90;;;;;;6199749;23;20158;-60
2023/05/04 09:35:16;;;;;;;3.80;1.70;;;12.70;99.90;;;;;;6202180;23;20624;-60
2023/05/04 09:37:46;;;;;;;7.33;1.43;;;12.80;99.90;;;;;;6202724;23;20142;-60
2023/05/04 09:40:13;;;;;;;4.57;1.50;;;12.90;99.90;;;;;;6203237;23;20183;-60
2023/05/04 09:42:38;;;;;;;10.70;1.57;;;12.90;99.90;;;;;;6205276;23;20557;-58
2023/05/04 09:45:06;;;;;;;5.20;1.33;;;12.90;99.90;;;;;;6204645;23;20160;-59
2023/05/04 09:47:36;;;;;;;4.80;1.50;;;13.00;99.90;;;;;;6206405;23;20493;-57
2023/05/04 09:50:13;;;;;;;5.90;1.57;;;13.10;99.90;;;;;;6202005;23;20160;-59
2023/05/04 09:52:43;;;;;;;3.57;1.67;;;13.10;99.90;;;;;;6200050;23;20519;-59
2023/05/04 09:55:19;;;;;;;4.30;1.40;;;13.20;99.90;;;;;;6204704;23;20235;-60
2023/05/04 09:57:46;;;;;;;2.53;1.40;;;13.30;99.90;;;;;;6202300;23;20153;-59
2023/05/04 10:00:17;;;;;;;6.33;1.70;;;13.30;99.90;;;;;;6202790;23;20260;-59
2023/05/04 10:02:44;;;;;;;2.00;1.17;;;13.40;99.90;;;;;;6204110;23;20137;-59
2023/05/04 10:05:13;;;;;;;2.43;1.63;;;13.40;99.90;;;;;;6200629;23;20207;-60
2023/05/04 10:07:39;;;;;;;2.23;1.30;;;13.50;99.90;;;;;;6200692;23;20137;-59
2023/05/04 10:10:06;;;;;;;3.63;1.47;;;13.50;99.90;;;;;;6201313;23;20154;-66
2023/05/04 10:12:32;;;;;;;4.20;1.33;;;13.50;99.90;;;;;;6202180;23;20442;-66
2023/05/04 10:14:57;;;;;;;5.30;1.37;;;13.60;99.90;;;;;;6202173;23;20141;-66
2023/05/04 10:18:00;;;;;;;4.43;1.40;;;13.60;99.90;;;;;;6202132;23;20192;-67
2023/05/04 10:21:00;;;;;;;3.03;1.70;;;13.70;99.90;;;;;;6199408;23;20161;-66
2023/05/04 10:23:34;;;;;;;4.53;1.23;;;13.70;99.90;;;;;;6202340;23;20138;-67
2023/05/04 10:26:40;;;;;;;8.13;2.03;;;13.80;99.90;;;;;;6202072;23;20248;-66
2023/05/04 10:29:23;;;;;;;5.37;1.80;;;13.90;99.90;;;;;;6200095;23;20189;-67
2023/05/04 10:31:49;;;;;;;4.60;1.37;;;14.00;99.90;;;;;;6200951;23;20149;-59
2023/05/04 10:34:34;;;;;;;2.50;1.30;;;14.00;99.90;;;;;;6199743;23;20145;-60
2023/05/04 10:37:04;;;;;;;6.77;1.80;;;14.10;99.90;;;;;;6197592;23;20176;-59
2023/05/04 10:39:32;;;;;;;4.30;1.53;;;14.10;99.90;;;;;;6199979;23;20177;-60
2023/05/04 10:42:02;;;;;;;3.27;1.60;;;14.20;99.90;;;;;;6200859;23;20149;-60
2023/05/04 10:44:30;;;;;;;4.50;2.00;;;14.20;99.90;;;;;;6201191;23;20141;-59
2023/05/04 10:47:14;;;;;;;3.10;1.47;;;14.30;99.90;;;;;;6200261;23;20224;-60
2023/05/04 10:49:40;;;;;;;8.60;2.53;;;14.30;99.90;;;;;;6203515;23;20145;-60
2023/05/04 10:52:16;;;;;;;2.53;1.50;;;14.30;99.90;;;;;;6200704;23;20153;-60
2023/05/04 10:54:43;;;;;;;2.73;1.23;;;14.40;99.90;;;;;;6197151;23;20160;-60
2023/05/04 10:57:11;;;;;;;3.73;1.50;;;14.40;99.90;;;;;;6196360;23;20245;-59
2023/05/04 10:59:38;;;;;;;2.40;1.50;;;14.50;99.90;;;;;;6199018;23;20173;-59
2023/05/04 11:02:05;;;;;;;6.50;2.00;;;14.60;99.90;;;;;;6201672;23;20746;-60
2023/05/04 11:04:32;;;;;;;4.63;1.63;;;14.70;99.90;;;;;;6200433;23;20142;-60
2023/05/04 11:07:04;;;;;;;2.70;1.53;;;14.70;99.90;;;;;;6200826;23;20228;-59
2023/05/04 11:09:40;;;;;;;3.50;1.43;;;14.70;99.90;;;;;;6203678;23;20468;-58
2023/05/04 11:12:09;;;;;;;3.87;1.40;;;14.80;99.90;;;;;;6201858;23;20148;-58
2023/05/04 11:14:40;;;;;;;3.70;1.70;;;14.80;99.90;;;;;;6200635;23;20583;-57
2023/05/04 11:17:13;;;;;;;7.20;1.47;;;14.90;99.90;;;;;;6198991;23;20145;-58
2023/05/04 11:19:49;;;;;;;4.00;1.47;;;15.00;99.90;;;;;;6197591;23;20804;-58
2023/05/04 11:22:18;;;;;;;3.47;1.27;;;15.10;99.90;;;;;;6169047;23;20828;-58
2023/05/04 11:24:52;;;;;;;3.40;1.40;;;15.20;99.90;;;;;;6191838;23;20276;-59
2023/05/04 11:27:29;;;;;;;5.47;1.47;;;15.40;99.90;;;;;;6191594;23;20133;-58
2023/05/04 11:29:59;;;;;;;2.07;1.33;;;15.60;99.90;;;;;;6191412;23;20197;-56
2023/05/04 11:32:39;;;;;;;4.33;1.60;;;15.60;99.90;;;;;;6191828;23;20149;-57
2023/05/04 11:35:13;;;;;;;4.33;1.43;;;15.70;99.90;;;;;;6190479;23;20224;-57
2023/05/04 11:37:41;;;;;;;4.63;1.20;;;15.90;99.90;;;;;;6190487;23;20168;-58
2023/05/04 11:40:11;;;;;;;2.67;1.60;;;16.00;99.90;;;;;;6194922;23;20165;-59
2023/05/04 11:42:38;;;;;;;3.37;1.57;;;16.10;99.90;;;;;;6196454;23;20536;-56
2023/05/04 11:45:09;;;;;;;5.03;1.67;;;16.30;99.90;;;;;;6198722;23;20196;-58
2023/05/04 11:47:36;;;;;;;3.23;1.53;;;16.40;99.90;;;;;;6198296;23;20223;-60
2023/05/04 11:50:02;;;;;;;3.37;1.50;;;16.50;99.90;;;;;;6195605;23;20146;-59
2023/05/04 11:52:29;;;;;;;2.37;1.10;;;16.50;99.90;;;;;;6195733;23;20446;-59
2023/05/04 11:54:56;;;;;;;5.07;1.43;;;16.60;99.90;;;;;;6196979;23;20215;-59
2023/05/04 11:57:22;;;;;;;4.63;1.70;;;16.70;99.90;;;;;;6198330;23;20146;-60
2023/05/04 11:59:48;;;;;;;4.60;1.70;;;16.80;99.90;;;;;;6200747;23;20676;-60
2023/05/04 12:02:17;;;;;;;2.47;1.37;;;16.80;99.90;;;;;;6199662;23;20738;-60
2023/05/04 12:04:43;;;;;;;2.93;1.60;;;16.90;99.90;;;;;;6200044;23;20166;-60
2023/05/04 12:07:09;;;;;;;3.93;1.73;;;17.00;99.90;;;;;;6196757;23;20138;-58
2023/05/04 12:09:47;;;;;;;2.00;1.27;;;17.10;99.90;;;;;;6199682;23;20192;-59
2023/05/04 12:12:19;;;;;;;3.53;1.73;;;17.30;99.90;;;;;;6200335;23;20153;-59
2023/05/04 12:14:52;;;;;;;3.63;1.80;;;17.40;99.90;;;;;;6199099;23;20218;-60
2023/05/04 12:17:19;;;;;;;2.17;1.20;;;17.30;99.90;;;;;;6197536;23;20142;-60
2023/05/04 12:19:53;;;;;;;3.60;1.60;;;17.40;99.90;;;;;;6194597;23;20165;-60
2023/05/04 12:22:29;;;;;;;3.90;1.20;;;17.50;99.90;;;;;;6192851;23;20141;-60
2023/05/04 12:24:59;;;;;;;4.40;1.30;;;17.50;99.90;;;;;;6191671;23;20211;-59
2023/05/04 12:27:25;;;;;;;2.33;1.03;;;17.60;99.90;;;;;;6192282;23;20165;-66
2023/05/04 12:29:51;;;;;;;3.40;1.40;;;17.80;99.90;;;;;;6191987;23;20272;-60
2023/05/04 12:32:17;;;;;;;3.03;1.57;;;17.90;99.90;;;;;;6166647;23;20175;-61
2023/05/04 12:34:42;;;;;;;4.37;1.50;;;17.80;99.70;;;;;;6172721;23;20146;-58
2023/05/04 12:37:08;;;;;;;2.70;1.40;;;17.70;99.60;;;;;;6198207;23;20134;-60
2023/05/04 12:39:34;;;;;;;1.90;1.07;;;17.80;99.90;;;;;;6171652;23;20180;-58
2023/05/04 12:42:00;;;;;;;2.60;1.20;;;17.90;99.90;;;;;;6172655;23;20596;-60
2023/05/04 12:44:27;;;;;;;4.27;1.27;;;18.10;99.90;;;;;;6173074;23;20146;-60
2023/05/04 12:46:54;;;;;;;4.00;1.40;;;18.30;99.90;;;;;;6195900;23;20153;-60
2023/05/04 12:49:20;;;;;;;6.47;1.67;;;18.50;99.90;;;;;;6161674;23;20173;-61
2023/05/04 12:51:46;;;;;;;3.90;1.17;;;18.70;99.90;;;;;;6162775;23;20219;-60